sensor_id;sensor_type;location;lat;lon;timestamp;P1;durP1;ratioP1;P2;durP2;ratioP2
5730;SDS011;2890;51.950;7.668;2024-01-30T00:02:19;18.50;;;15.40;;
5730;SDS011;2890;51.950;7.668;2024-01-30T00:04:46;17.60;;;15.60;;
5730;SDS011;2890;51.950;7.668;2024-01-30T00:07:14;16.47;;;14.10;;
5730;SDS011;2890;51.950;7.668;2024-01-30T00:09:40;17.20;;;14.90;;
5730;SDS011;2890;51.950;7.668;2024-01-30T00:12:07;18.27;;;14.83;;
5730;SDS011;2890;51.950;7.668;2024-01-30T00:14:33;18.60;;;15.53;;
5730;SDS011;2890;51.950;7.668;2024-01-30T00:17:00;16.40;;;14.70;;
5730;SDS011;2890;51.950;7.668;2024-01-30T00:19:26;19.83;;;15.33;;
5730;SDS011;2890;51.950;7.668;2024-01-30T00:21:53;19.57;;;16.50;;
5730;SDS011;2890;51.950;7.668;2024-01-30T00:24:20;18.87;;;16.87;;
5730;SDS011;2890;51.950;7.668;2024-01-30T00:26:47;17.60;;;15.77;;
5730;SDS011;2890;51.950;7.668;2024-01-30T00:29:13;19.90;;;14.90;;
5730;SDS011;2890;51.950;7.668;2024-01-30T00:31:44;17.07;;;15.27;;
5730;SDS011;2890;51.950;7.668;2024-01-30T00:34:10;16.93;;;15.13;;
5730;SDS011;2890;51.950;7.668;2024-01-30T00:36:37;21.07;;;16.30;;
5730;SDS011;2890;51.950;7.668;2024-01-30T00:39:03;18.03;;;15.90;;
5730;SDS011;2890;51.950;7.668;2024-01-30T00:41:32;18.67;;;15.00;;
5730;SDS011;2890;51.950;7.668;2024-01-30T00:43:59;17.27;;;15.40;;
5730;SDS011;2890;51.950;7.668;2024-01-30T00:46:26;19.77;;;15.30;;
5730;SDS011;2890;51.950;7.668;2024-01-30T00:48:52;16.93;;;14.63;;
5730;SDS011;2890;51.950;7.668;2024-01-30T00:51:19;18.70;;;16.03;;
5730;SDS011;2890;51.950;7.668;2024-01-30T00:53:45;17.93;;;14.53;;
5730;SDS011;2890;51.950;7.668;2024-01-30T00:56:11;19.23;;;14.60;;
5730;SDS011;2890;51.950;7.668;2024-01-30T00:58:40;19.83;;;15.30;;
5730;SDS011;2890;51.950;7.668;2024-01-30T01:01:06;17.93;;;16.03;;
5730;SDS011;2890;51.950;7.668;2024-01-30T01:03:33;16.70;;;14.80;;
5730;SDS011;2890;51.950;7.668;2024-01-30T01:05:59;19.50;;;15.63;;
5730;SDS011;2890;51.950;7.668;2024-01-30T01:08:26;15.80;;;14.17;;
5730;SDS011;2890;51.950;7.668;2024-01-30T01:10:52;18.60;;;15.10;;
5730;SDS011;2890;51.950;7.668;2024-01-30T01:13:19;15.87;;;14.27;;
5730;SDS011;2890;51.950;7.668;2024-01-30T01:15:47;15.60;;;14.00;;
5730;SDS011;2890;51.950;7.668;2024-01-30T01:18:13;16.57;;;14.83;;
5730;SDS011;2890;51.950;7.668;2024-01-30T01:20:40;16.03;;;14.33;;
5730;SDS011;2890;51.950;7.668;2024-01-30T01:23:06;19.87;;;15.47;;
5730;SDS011;2890;51.950;7.668;2024-01-30T01:25:32;16.63;;;13.80;;
5730;SDS011;2890;51.950;7.668;2024-01-30T01:27:59;19.83;;;14.60;;
5730;SDS011;2890;51.950;7.668;2024-01-30T01:30:26;16.70;;;15.00;;
5730;SDS011;2890;51.950;7.668;2024-01-30T01:32:55;17.47;;;14.50;;
5730;SDS011;2890;51.950;7.668;2024-01-30T01:35:25;17.60;;;13.87;;
5730;SDS011;2890;51.950;7.668;2024-01-30T01:37:51;18.97;;;15.03;;
5730;SDS011;2890;51.950;7.668;2024-01-30T01:40:20;17.40;;;14.37;;
5730;SDS011;2890;51.950;7.668;2024-01-30T01:42:48;15.90;;;13.90;;
5730;SDS011;2890;51.950;7.668;2024-01-30T01:45:15;16.60;;;13.77;;
5730;SDS011;2890;51.950;7.668;2024-01-30T01:47:42;19.47;;;14.10;;
5730;SDS011;2890;51.950;7.668;2024-01-30T01:50:12;18.33;;;13.63;;
5730;SDS011;2890;51.950;7.668;2024-01-30T01:52:39;19.00;;;15.53;;
5730;SDS011;2890;51.950;7.668;2024-01-30T01:55:06;16.03;;;14.17;;
5730;SDS011;2890;51.950;7.668;2024-01-30T01:57:33;18.93;;;14.83;;
5730;SDS011;2890;51.950;7.668;2024-01-30T02:00:00;16.67;;;13.50;;
5730;SDS011;2890;51.950;7.668;2024-01-30T02:02:28;15.97;;;14.37;;
5730;SDS011;2890;51.950;7.668;2024-01-30T02:04:56;17.60;;;14.20;;
5730;SDS011;2890;51.950;7.668;2024-01-30T02:07:24;16.80;;;14.53;;
5730;SDS011;2890;51.950;7.668;2024-01-30T02:09:50;17.37;;;13.87;;
5730;SDS011;2890;51.950;7.668;2024-01-30T02:12:17;15.63;;;13.50;;
5730;SDS011;2890;51.950;7.668;2024-01-30T02:14:44;15.73;;;13.70;;
5730;SDS011;2890;51.950;7.668;2024-01-30T02:17:11;15.80;;;14.03;;
5730;SDS011;2890;51.950;7.668;2024-01-30T02:19:37;14.90;;;13.23;;
5730;SDS011;2890;51.950;7.668;2024-01-30T02:22:05;15.70;;;13.27;;
5730;SDS011;2890;51.950;7.668;2024-01-30T02:24:32;16.30;;;13.40;;
5730;SDS011;2890;51.950;7.668;2024-01-30T02:26:58;15.07;;;13.37;;
5730;SDS011;2890;51.950;7.668;2024-01-30T02:29:25;17.20;;;14.07;;
5730;SDS011;2890;51.950;7.668;2024-01-30T02:31:51;15.10;;;13.57;;
5730;SDS011;2890;51.950;7.668;2024-01-30T02:34:18;15.23;;;13.53;;
5730;SDS011;2890;51.950;7.668;2024-01-30T02:36:45;15.37;;;13.57;;
5730;SDS011;2890;51.950;7.668;2024-01-30T02:39:13;16.67;;;14.63;;
5730;SDS011;2890;51.950;7.668;2024-01-30T02:41:39;14.83;;;13.27;;
5730;SDS011;2890;51.950;7.668;2024-01-30T02:44:06;16.90;;;14.40;;
5730;SDS011;2890;51.950;7.668;2024-01-30T02:46:32;14.33;;;12.83;;
5730;SDS011;2890;51.950;7.668;2024-01-30T02:48:59;17.80;;;13.30;;
5730;SDS011;2890;51.950;7.668;2024-01-30T02:51:25;15.10;;;13.50;;
5730;SDS011;2890;51.950;7.668;2024-01-30T02:53:52;14.40;;;12.83;;
5730;SDS011;2890;51.950;7.668;2024-01-30T02:56:20;14.40;;;12.87;;
5730;SDS011;2890;51.950;7.668;2024-01-30T02:58:46;15.23;;;13.13;;
5730;SDS011;2890;51.950;7.668;2024-01-30T03:01:13;17.17;;;13.13;;
5730;SDS011;2890;51.950;7.668;2024-01-30T03:03:39;17.73;;;13.87;;
5730;SDS011;2890;51.950;7.668;2024-01-30T03:06:05;16.10;;;12.60;;
5730;SDS011;2890;51.950;7.668;2024-01-30T03:08:32;15.57;;;13.53;;
5730;SDS011;2890;51.950;7.668;2024-01-30T03:10:59;16.97;;;15.27;;
5730;SDS011;2890;51.950;7.668;2024-01-30T03:13:27;16.53;;;14.20;;
5730;SDS011;2890;51.950;7.668;2024-01-30T03:15:54;14.20;;;12.70;;
5730;SDS011;2890;51.950;7.668;2024-01-30T03:18:20;15.57;;;12.70;;
5730;SDS011;2890;51.950;7.668;2024-01-30T03:20:47;18.23;;;13.30;;
5730;SDS011;2890;51.950;7.668;2024-01-30T03:23:13;14.40;;;13.03;;
5730;SDS011;2890;51.950;7.668;2024-01-30T03:25:40;15.27;;;13.73;;
5730;SDS011;2890;51.950;7.668;2024-01-30T03:28:06;15.17;;;13.57;;
5730;SDS011;2890;51.950;7.668;2024-01-30T03:30:35;16.27;;;13.10;;
5730;SDS011;2890;51.950;7.668;2024-01-30T03:33:02;17.20;;;13.80;;
5730;SDS011;2890;51.950;7.668;2024-01-30T03:35:28;15.23;;;13.63;;
5730;SDS011;2890;51.950;7.668;2024-01-30T03:37:55;16.27;;;12.87;;
5730;SDS011;2890;51.950;7.668;2024-01-30T03:40:21;15.60;;;14.00;;
5730;SDS011;2890;51.950;7.668;2024-01-30T03:42:47;19.90;;;13.60;;
5730;SDS011;2890;51.950;7.668;2024-01-30T03:45:14;18.13;;;13.77;;
5730;SDS011;2890;51.950;7.668;2024-01-30T03:47:44;14.73;;;13.33;;
5730;SDS011;2890;51.950;7.668;2024-01-30T03:50:10;17.27;;;13.33;;
5730;SDS011;2890;51.950;7.668;2024-01-30T03:52:37;17.13;;;13.33;;
5730;SDS011;2890;51.950;7.668;2024-01-30T03:55:04;15.67;;;12.70;;
5730;SDS011;2890;51.950;7.668;2024-01-30T03:57:31;15.03;;;13.43;;
5730;SDS011;2890;51.950;7.668;2024-01-30T03:59:57;18.57;;;13.93;;
5730;SDS011;2890;51.950;7.668;2024-01-30T04:02:24;16.67;;;13.80;;
5730;SDS011;2890;51.950;7.668;2024-01-30T04:04:51;23.00;;;15.40;;
5730;SDS011;2890;51.950;7.668;2024-01-30T04:07:18;14.80;;;13.20;;
5730;SDS011;2890;51.950;7.668;2024-01-30T04:09:44;14.70;;;13.00;;
5730;SDS011;2890;51.950;7.668;2024-01-30T04:12:11;19.57;;;14.07;;
5730;SDS011;2890;51.950;7.668;2024-01-30T04:14:37;15.20;;;13.60;;
5730;SDS011;2890;51.950;7.668;2024-01-30T04:17:04;15.53;;;13.27;;
5730;SDS011;2890;51.950;7.668;2024-01-30T04:19:30;17.10;;;13.00;;
5730;SDS011;2890;51.950;7.668;2024-01-30T04:21:58;15.27;;;13.60;;
5730;SDS011;2890;51.950;7.668;2024-01-30T04:24:25;14.60;;;12.63;;
5730;SDS011;2890;51.950;7.668;2024-01-30T04:26:51;16.90;;;14.17;;
5730;SDS011;2890;51.950;7.668;2024-01-30T04:29:17;14.70;;;13.10;;
5730;SDS011;2890;51.950;7.668;2024-01-30T04:31:44;14.23;;;12.43;;
5730;SDS011;2890;51.950;7.668;2024-01-30T04:34:11;14.60;;;12.80;;
5730;SDS011;2890;51.950;7.668;2024-01-30T04:36:37;15.30;;;13.80;;
5730;SDS011;2890;51.950;7.668;2024-01-30T04:39:05;20.10;;;14.80;;
5730;SDS011;2890;51.950;7.668;2024-01-30T04:41:33;16.90;;;11.80;;
5730;SDS011;2890;51.950;7.668;2024-01-30T04:44:00;17.50;;;13.63;;
5730;SDS011;2890;51.950;7.668;2024-01-30T04:46:26;15.13;;;13.03;;
5730;SDS011;2890;51.950;7.668;2024-01-30T04:48:53;18.33;;;13.20;;
5730;SDS011;2890;51.950;7.668;2024-01-30T04:51:19;19.40;;;13.70;;
5730;SDS011;2890;51.950;7.668;2024-01-30T04:53:46;14.93;;;13.20;;
5730;SDS011;2890;51.950;7.668;2024-01-30T04:56:14;14.80;;;13.30;;
5730;SDS011;2890;51.950;7.668;2024-01-30T04:58:40;14.03;;;12.60;;
5730;SDS011;2890;51.950;7.668;2024-01-30T05:01:07;15.37;;;12.87;;
5730;SDS011;2890;51.950;7.668;2024-01-30T05:03:33;15.20;;;13.03;;
5730;SDS011;2890;51.950;7.668;2024-01-30T05:06:00;14.83;;;13.40;;
5730;SDS011;2890;51.950;7.668;2024-01-30T05:08:26;18.07;;;12.57;;
5730;SDS011;2890;51.950;7.668;2024-01-30T05:10:53;17.37;;;15.50;;
5730;SDS011;2890;51.950;7.668;2024-01-30T05:13:21;16.23;;;13.27;;
5730;SDS011;2890;51.950;7.668;2024-01-30T05:15:47;16.23;;;14.40;;
5730;SDS011;2890;51.950;7.668;2024-01-30T05:18:13;18.17;;;13.00;;
5730;SDS011;2890;51.950;7.668;2024-01-30T05:20:40;14.97;;;13.33;;
5730;SDS011;2890;51.950;7.668;2024-01-30T05:23:06;13.67;;;12.30;;
5730;SDS011;2890;51.950;7.668;2024-01-30T05:25:33;15.70;;;12.40;;
5730;SDS011;2890;51.950;7.668;2024-01-30T05:27:59;15.93;;;12.97;;
5730;SDS011;2890;51.950;7.668;2024-01-30T05:30:27;19.57;;;13.87;;
5730;SDS011;2890;51.950;7.668;2024-01-30T05:32:53;14.60;;;13.13;;
5730;SDS011;2890;51.950;7.668;2024-01-30T05:35:20;14.80;;;12.60;;
5730;SDS011;2890;51.950;7.668;2024-01-30T05:37:47;15.43;;;11.93;;
5730;SDS011;2890;51.950;7.668;2024-01-30T05:40:14;17.47;;;12.27;;
5730;SDS011;2890;51.950;7.668;2024-01-30T05:42:41;16.10;;;13.10;;
5730;SDS011;2890;51.950;7.668;2024-01-30T05:45:07;15.57;;;14.00;;
5730;SDS011;2890;51.950;7.668;2024-01-30T05:47:35;15.10;;;13.50;;
5730;SDS011;2890;51.950;7.668;2024-01-30T05:50:02;15.47;;;13.90;;
5730;SDS011;2890;51.950;7.668;2024-01-30T05:52:29;14.70;;;13.10;;
5730;SDS011;2890;51.950;7.668;2024-01-30T05:54:55;18.17;;;13.80;;
5730;SDS011;2890;51.950;7.668;2024-01-30T05:57:22;16.13;;;13.23;;
5730;SDS011;2890;51.950;7.668;2024-01-30T05:59:48;19.10;;;14.03;;
5730;SDS011;2890;51.950;7.668;2024-01-30T06:02:17;15.20;;;13.20;;
5730;SDS011;2890;51.950;7.668;2024-01-30T06:04:44;14.83;;;13.27;;
5730;SDS011;2890;51.950;7.668;2024-01-30T06:07:11;15.70;;;12.70;;
5730;SDS011;2890;51.950;7.668;2024-01-30T06:09:37;14.40;;;12.90;;
5730;SDS011;2890;51.950;7.668;2024-01-30T06:12:04;16.63;;;12.50;;
5730;SDS011;2890;51.950;7.668;2024-01-30T06:14:31;15.87;;;13.97;;
5730;SDS011;2890;51.950;7.668;2024-01-30T06:16:57;19.50;;;13.47;;
5730;SDS011;2890;51.950;7.668;2024-01-30T06:19:24;17.10;;;12.57;;
5730;SDS011;2890;51.950;7.668;2024-01-30T06:21:52;31.60;;;21.27;;
5730;SDS011;2890;51.950;7.668;2024-01-30T06:24:18;17.10;;;14.23;;
5730;SDS011;2890;51.950;7.668;2024-01-30T06:26:45;27.53;;;14.97;;
5730;SDS011;2890;51.950;7.668;2024-01-30T06:29:11;19.20;;;14.07;;
5730;SDS011;2890;51.950;7.668;2024-01-30T06:31:40;17.63;;;13.77;;
5730;SDS011;2890;51.950;7.668;2024-01-30T06:34:07;16.83;;;12.50;;
5730;SDS011;2890;51.950;7.668;2024-01-30T06:36:33;18.93;;;14.50;;
5730;SDS011;2890;51.950;7.668;2024-01-30T06:39:01;15.03;;;13.40;;
5730;SDS011;2890;51.950;7.668;2024-01-30T06:41:28;15.80;;;14.17;;
5730;SDS011;2890;51.950;7.668;2024-01-30T06:43:54;15.03;;;12.83;;
5730;SDS011;2890;51.950;7.668;2024-01-30T06:46:21;14.40;;;12.90;;
5730;SDS011;2890;51.950;7.668;2024-01-30T06:48:48;15.50;;;13.73;;
5730;SDS011;2890;51.950;7.668;2024-01-30T06:51:14;16.27;;;12.40;;
5730;SDS011;2890;51.950;7.668;2024-01-30T06:53:40;21.57;;;14.20;;
5730;SDS011;2890;51.950;7.668;2024-01-30T06:56:08;15.67;;;11.90;;
5730;SDS011;2890;51.950;7.668;2024-01-30T06:58:35;19.77;;;13.00;;
5730;SDS011;2890;51.950;7.668;2024-01-30T07:01:02;16.83;;;12.90;;
5730;SDS011;2890;51.950;7.668;2024-01-30T07:03:28;12.77;;;11.27;;
5730;SDS011;2890;51.950;7.668;2024-01-30T07:05:55;15.37;;;13.30;;
5730;SDS011;2890;51.950;7.668;2024-01-30T07:08:22;12.20;;;11.00;;
5730;SDS011;2890;51.950;7.668;2024-01-30T07:10:52;13.57;;;12.20;;
5730;SDS011;2890;51.950;7.668;2024-01-30T07:13:21;17.43;;;12.73;;
5730;SDS011;2890;51.950;7.668;2024-01-30T07:15:48;16.70;;;13.47;;
5730;SDS011;2890;51.950;7.668;2024-01-30T07:18:14;20.63;;;12.80;;
5730;SDS011;2890;51.950;7.668;2024-01-30T07:20:41;13.13;;;11.80;;
5730;SDS011;2890;51.950;7.668;2024-01-30T07:23:11;16.30;;;12.13;;
5730;SDS011;2890;51.950;7.668;2024-01-30T07:25:38;13.73;;;12.10;;
5730;SDS011;2890;51.950;7.668;2024-01-30T07:28:06;12.13;;;11.03;;
5730;SDS011;2890;51.950;7.668;2024-01-30T07:30:35;20.77;;;12.60;;
5730;SDS011;2890;51.950;7.668;2024-01-30T07:33:01;13.87;;;11.10;;
5730;SDS011;2890;51.950;7.668;2024-01-30T07:35:28;16.17;;;12.43;;
5730;SDS011;2890;51.950;7.668;2024-01-30T07:37:54;14.13;;;12.17;;
5730;SDS011;2890;51.950;7.668;2024-01-30T07:40:21;13.50;;;12.17;;
5730;SDS011;2890;51.950;7.668;2024-01-30T07:42:48;14.23;;;11.80;;
5730;SDS011;2890;51.950;7.668;2024-01-30T07:45:15;12.80;;;11.50;;
5730;SDS011;2890;51.950;7.668;2024-01-30T07:47:43;15.03;;;11.70;;
5730;SDS011;2890;51.950;7.668;2024-01-30T07:50:10;14.43;;;11.60;;
5730;SDS011;2890;51.950;7.668;2024-01-30T07:52:36;13.10;;;11.47;;
5730;SDS011;2890;51.950;7.668;2024-01-30T07:55:04;16.50;;;11.50;;
5730;SDS011;2890;51.950;7.668;2024-01-30T07:57:32;12.23;;;10.30;;
5730;SDS011;2890;51.950;7.668;2024-01-30T07:59:59;12.90;;;11.40;;
5730;SDS011;2890;51.950;7.668;2024-01-30T08:02:26;16.73;;;11.40;;
5730;SDS011;2890;51.950;7.668;2024-01-30T08:04:53;12.20;;;11.00;;
5730;SDS011;2890;51.950;7.668;2024-01-30T08:07:20;12.67;;;11.17;;
5730;SDS011;2890;51.950;7.668;2024-01-30T08:09:47;12.37;;;11.07;;
5730;SDS011;2890;51.950;7.668;2024-01-30T08:12:13;12.63;;;11.03;;
5730;SDS011;2890;51.950;7.668;2024-01-30T08:14:40;11.33;;;10.30;;
5730;SDS011;2890;51.950;7.668;2024-01-30T08:17:06;13.63;;;10.73;;
5730;SDS011;2890;51.950;7.668;2024-01-30T08:19:33;13.77;;;10.87;;
5730;SDS011;2890;51.950;7.668;2024-01-30T08:22:01;10.97;;;9.73;;
5730;SDS011;2890;51.950;7.668;2024-01-30T08:24:27;13.40;;;10.37;;
5730;SDS011;2890;51.950;7.668;2024-01-30T08:26:54;11.30;;;10.30;;
5730;SDS011;2890;51.950;7.668;2024-01-30T08:29:20;11.97;;;10.57;;
5730;SDS011;2890;51.950;7.668;2024-01-30T08:31:47;14.90;;;10.33;;
5730;SDS011;2890;51.950;7.668;2024-01-30T08:34:13;11.53;;;10.10;;
5730;SDS011;2890;51.950;7.668;2024-01-30T08:36:39;12.40;;;9.67;;
5730;SDS011;2890;51.950;7.668;2024-01-30T08:39:07;15.40;;;10.70;;
5730;SDS011;2890;51.950;7.668;2024-01-30T08:41:34;12.23;;;10.30;;
5730;SDS011;2890;51.950;7.668;2024-01-30T08:44:00;11.83;;;10.60;;
5730;SDS011;2890;51.950;7.668;2024-01-30T08:46:28;14.20;;;9.67;;
5730;SDS011;2890;51.950;7.668;2024-01-30T08:48:55;13.33;;;11.03;;
5730;SDS011;2890;51.950;7.668;2024-01-30T08:51:22;11.57;;;10.40;;
5730;SDS011;2890;51.950;7.668;2024-01-30T08:53:48;12.57;;;10.07;;
5730;SDS011;2890;51.950;7.668;2024-01-30T08:56:16;11.33;;;9.03;;
5730;SDS011;2890;51.950;7.668;2024-01-30T08:58:42;13.20;;;10.37;;
5730;SDS011;2890;51.950;7.668;2024-01-30T09:01:09;12.77;;;9.43;;
5730;SDS011;2890;51.950;7.668;2024-01-30T09:03:35;10.60;;;9.60;;
5730;SDS011;2890;51.950;7.668;2024-01-30T09:06:07;10.50;;;9.60;;
5730;SDS011;2890;51.950;7.668;2024-01-30T09:08:34;11.53;;;10.33;;
5730;SDS011;2890;51.950;7.668;2024-01-30T09:11:00;12.23;;;11.13;;
5730;SDS011;2890;51.950;7.668;2024-01-30T09:13:28;12.00;;;10.30;;
5730;SDS011;2890;51.950;7.668;2024-01-30T09:15:55;11.83;;;9.80;;
5730;SDS011;2890;51.950;7.668;2024-01-30T09:18:21;14.90;;;10.63;;
5730;SDS011;2890;51.950;7.668;2024-01-30T09:20:47;11.90;;;10.20;;
5730;SDS011;2890;51.950;7.668;2024-01-30T09:23:14;13.47;;;9.90;;
5730;SDS011;2890;51.950;7.668;2024-01-30T09:25:42;11.60;;;10.60;;
5730;SDS011;2890;51.950;7.668;2024-01-30T09:28:08;10.63;;;9.63;;
5730;SDS011;2890;51.950;7.668;2024-01-30T09:30:36;10.83;;;9.50;;
5730;SDS011;2890;51.950;7.668;2024-01-30T09:33:03;17.00;;;8.93;;
5730;SDS011;2890;51.950;7.668;2024-01-30T09:35:29;10.53;;;9.63;;
5730;SDS011;2890;51.950;7.668;2024-01-30T09:37:56;12.13;;;9.77;;
5730;SDS011;2890;51.950;7.668;2024-01-30T09:40:22;11.83;;;9.13;;
5730;SDS011;2890;51.950;7.668;2024-01-30T09:42:49;10.83;;;9.57;;
5730;SDS011;2890;51.950;7.668;2024-01-30T09:45:17;10.20;;;9.20;;
5730;SDS011;2890;51.950;7.668;2024-01-30T09:47:45;10.17;;;9.20;;
5730;SDS011;2890;51.950;7.668;2024-01-30T09:50:12;10.47;;;9.43;;
5730;SDS011;2890;51.950;7.668;2024-01-30T09:52:40;11.37;;;10.17;;
5730;SDS011;2890;51.950;7.668;2024-01-30T09:55:07;9.97;;;8.87;;
5730;SDS011;2890;51.950;7.668;2024-01-30T09:57:34;12.57;;;9.70;;
5730;SDS011;2890;51.950;7.668;2024-01-30T10:00:00;13.50;;;9.03;;
5730;SDS011;2890;51.950;7.668;2024-01-30T10:02:27;11.73;;;9.47;;
5730;SDS011;2890;51.950;7.668;2024-01-30T10:04:55;10.20;;;8.80;;
5730;SDS011;2890;51.950;7.668;2024-01-30T10:07:21;10.77;;;9.63;;
5730;SDS011;2890;51.950;7.668;2024-01-30T10:09:48;9.50;;;8.60;;
5730;SDS011;2890;51.950;7.668;2024-01-30T10:12:15;11.37;;;10.10;;
5730;SDS011;2890;51.950;7.668;2024-01-30T10:14:41;10.10;;;9.20;;
5730;SDS011;2890;51.950;7.668;2024-01-30T10:17:08;12.13;;;9.10;;
5730;SDS011;2890;51.950;7.668;2024-01-30T10:19:35;9.03;;;8.17;;
5730;SDS011;2890;51.950;7.668;2024-01-30T10:22:03;11.10;;;9.30;;
5730;SDS011;2890;51.950;7.668;2024-01-30T10:24:30;11.00;;;9.90;;
5730;SDS011;2890;51.950;7.668;2024-01-30T10:26:57;9.67;;;8.70;;
5730;SDS011;2890;51.950;7.668;2024-01-30T10:29:23;9.43;;;8.50;;
5730;SDS011;2890;51.950;7.668;2024-01-30T10:32:00;9.80;;;8.80;;
5730;SDS011;2890;51.950;7.668;2024-01-30T10:34:26;10.43;;;9.13;;
5730;SDS011;2890;51.950;7.668;2024-01-30T10:36:55;9.60;;;8.70;;
5730;SDS011;2890;51.950;7.668;2024-01-30T10:39:30;9.07;;;8.17;;
5730;SDS011;2890;51.950;7.668;2024-01-30T10:41:58;12.80;;;9.80;;
5730;SDS011;2890;51.950;7.668;2024-01-30T10:44:28;9.03;;;8.33;;
5730;SDS011;2890;51.950;7.668;2024-01-30T10:46:56;10.03;;;9.03;;
5730;SDS011;2890;51.950;7.668;2024-01-30T10:49:27;10.80;;;8.90;;
5730;SDS011;2890;51.950;7.668;2024-01-30T10:51:54;10.50;;;9.00;;
5730;SDS011;2890;51.950;7.668;2024-01-30T10:54:22;13.90;;;9.03;;
5730;SDS011;2890;51.950;7.668;2024-01-30T10:56:51;12.83;;;8.73;;
5730;SDS011;2890;51.950;7.668;2024-01-30T10:59:18;10.60;;;9.40;;
5730;SDS011;2890;51.950;7.668;2024-01-30T11:01:44;12.07;;;10.20;;
5730;SDS011;2890;51.950;7.668;2024-01-30T11:04:11;11.43;;;9.57;;
5730;SDS011;2890;51.950;7.668;2024-01-30T11:06:40;10.57;;;9.50;;
5730;SDS011;2890;51.950;7.668;2024-01-30T11:09:10;15.23;;;9.60;;
5730;SDS011;2890;51.950;7.668;2024-01-30T11:11:47;11.77;;;9.43;;
5730;SDS011;2890;51.950;7.668;2024-01-30T11:14:16;10.37;;;9.30;;
5730;SDS011;2890;51.950;7.668;2024-01-30T11:16:42;10.80;;;9.07;;
5730;SDS011;2890;51.950;7.668;2024-01-30T11:19:10;10.30;;;9.30;;
5730;SDS011;2890;51.950;7.668;2024-01-30T11:21:41;10.17;;;9.23;;
5730;SDS011;2890;51.950;7.668;2024-01-30T11:24:07;9.83;;;8.83;;
5730;SDS011;2890;51.950;7.668;2024-01-30T11:26:34;11.20;;;9.40;;
5730;SDS011;2890;51.950;7.668;2024-01-30T11:29:02;9.77;;;8.47;;
5730;SDS011;2890;51.950;7.668;2024-01-30T11:31:30;11.30;;;8.80;;
5730;SDS011;2890;51.950;7.668;2024-01-30T11:33:57;9.67;;;8.30;;
5730;SDS011;2890;51.950;7.668;2024-01-30T11:36:25;10.30;;;9.30;;
5730;SDS011;2890;51.950;7.668;2024-01-30T11:38:52;13.13;;;8.60;;
5730;SDS011;2890;51.950;7.668;2024-01-30T11:41:18;12.80;;;8.87;;
5730;SDS011;2890;51.950;7.668;2024-01-30T11:43:50;11.90;;;7.87;;
5730;SDS011;2890;51.950;7.668;2024-01-30T11:46:20;11.17;;;8.50;;
5730;SDS011;2890;51.950;7.668;2024-01-30T11:48:48;10.23;;;8.47;;
5730;SDS011;2890;51.950;7.668;2024-01-30T11:51:14;8.63;;;7.57;;
5730;SDS011;2890;51.950;7.668;2024-01-30T11:53:43;12.17;;;8.57;;
5730;SDS011;2890;51.950;7.668;2024-01-30T11:56:10;11.60;;;8.73;;
5730;SDS011;2890;51.950;7.668;2024-01-30T11:58:42;13.30;;;8.40;;
5730;SDS011;2890;51.950;7.668;2024-01-30T12:01:08;11.63;;;7.87;;
5730;SDS011;2890;51.950;7.668;2024-01-30T12:03:35;10.80;;;7.60;;
5730;SDS011;2890;51.950;7.668;2024-01-30T12:06:03;10.27;;;8.20;;
5730;SDS011;2890;51.950;7.668;2024-01-30T12:08:30;10.10;;;8.10;;
5730;SDS011;2890;51.950;7.668;2024-01-30T12:10:56;9.30;;;7.77;;
5730;SDS011;2890;51.950;7.668;2024-01-30T12:13:23;12.40;;;8.37;;
5730;SDS011;2890;51.950;7.668;2024-01-30T12:15:50;13.70;;;8.40;;
5730;SDS011;2890;51.950;7.668;2024-01-30T12:18:18;12.57;;;7.80;;
5730;SDS011;2890;51.950;7.668;2024-01-30T12:20:44;11.10;;;8.20;;
5730;SDS011;2890;51.950;7.668;2024-01-30T12:23:12;12.63;;;8.63;;
5730;SDS011;2890;51.950;7.668;2024-01-30T12:25:39;12.37;;;8.80;;
5730;SDS011;2890;51.950;7.668;2024-01-30T12:28:05;9.63;;;8.00;;
5730;SDS011;2890;51.950;7.668;2024-01-30T12:30:32;11.80;;;7.80;;
5730;SDS011;2890;51.950;7.668;2024-01-30T12:33:00;10.70;;;8.83;;
5730;SDS011;2890;51.950;7.668;2024-01-30T12:35:29;13.03;;;8.20;;
5730;SDS011;2890;51.950;7.668;2024-01-30T12:37:55;10.60;;;8.80;;
5730;SDS011;2890;51.950;7.668;2024-01-30T12:40:23;16.80;;;8.97;;
5730;SDS011;2890;51.950;7.668;2024-01-30T12:42:51;10.73;;;8.53;;
5730;SDS011;2890;51.950;7.668;2024-01-30T12:45:18;11.27;;;9.00;;
5730;SDS011;2890;51.950;7.668;2024-01-30T12:47:46;10.33;;;9.23;;
5730;SDS011;2890;51.950;7.668;2024-01-30T12:50:13;13.27;;;9.53;;
5730;SDS011;2890;51.950;7.668;2024-01-30T12:52:40;10.43;;;9.27;;
5730;SDS011;2890;51.950;7.668;2024-01-30T12:55:07;11.13;;;8.83;;
5730;SDS011;2890;51.950;7.668;2024-01-30T12:57:35;10.20;;;8.43;;
5730;SDS011;2890;51.950;7.668;2024-01-30T13:00:01;13.20;;;9.33;;
5730;SDS011;2890;51.950;7.668;2024-01-30T13:02:28;9.73;;;8.73;;
5730;SDS011;2890;51.950;7.668;2024-01-30T13:04:59;10.37;;;9.27;;
5730;SDS011;2890;51.950;7.668;2024-01-30T13:07:26;12.23;;;9.53;;
5730;SDS011;2890;51.950;7.668;2024-01-30T13:09:52;12.37;;;8.30;;
5730;SDS011;2890;51.950;7.668;2024-01-30T13:12:19;10.50;;;8.90;;
5730;SDS011;2890;51.950;7.668;2024-01-30T13:14:46;12.07;;;8.23;;
5730;SDS011;2890;51.950;7.668;2024-01-30T13:17:13;9.63;;;8.50;;
5730;SDS011;2890;51.950;7.668;2024-01-30T13:19:39;13.20;;;8.50;;
5730;SDS011;2890;51.950;7.668;2024-01-30T13:22:06;9.67;;;8.67;;
5730;SDS011;2890;51.950;7.668;2024-01-30T13:24:32;11.17;;;9.30;;
5730;SDS011;2890;51.950;7.668;2024-01-30T13:26:59;15.23;;;9.47;;
5730;SDS011;2890;51.950;7.668;2024-01-30T13:29:25;9.90;;;8.17;;
5730;SDS011;2890;51.950;7.668;2024-01-30T13:31:53;15.70;;;9.90;;
5730;SDS011;2890;51.950;7.668;2024-01-30T13:34:19;13.40;;;9.40;;
5730;SDS011;2890;51.950;7.668;2024-01-30T13:36:46;12.50;;;9.40;;
5730;SDS011;2890;51.950;7.668;2024-01-30T13:39:13;9.57;;;8.67;;
5730;SDS011;2890;51.950;7.668;2024-01-30T13:41:40;11.57;;;9.63;;
5730;SDS011;2890;51.950;7.668;2024-01-30T13:44:07;10.00;;;9.17;;
5730;SDS011;2890;51.950;7.668;2024-01-30T13:46:34;13.73;;;9.60;;
5730;SDS011;2890;51.950;7.668;2024-01-30T13:49:02;11.20;;;8.97;;
5730;SDS011;2890;51.950;7.668;2024-01-30T13:51:28;12.70;;;10.03;;
5730;SDS011;2890;51.950;7.668;2024-01-30T13:53:55;10.63;;;9.50;;
5730;SDS011;2890;51.950;7.668;2024-01-30T13:56:21;17.10;;;10.20;;
5730;SDS011;2890;51.950;7.668;2024-01-30T13:58:48;10.90;;;9.00;;
5730;SDS011;2890;51.950;7.668;2024-01-30T14:01:15;10.60;;;9.50;;
5730;SDS011;2890;51.950;7.668;2024-01-30T14:03:41;9.70;;;8.80;;
5730;SDS011;2890;51.950;7.668;2024-01-30T14:06:09;14.03;;;9.43;;
5730;SDS011;2890;51.950;7.668;2024-01-30T14:08:35;11.90;;;9.97;;
5730;SDS011;2890;51.950;7.668;2024-01-30T14:11:02;10.63;;;8.20;;
5730;SDS011;2890;51.950;7.668;2024-01-30T14:13:28;15.17;;;9.70;;
5730;SDS011;2890;51.950;7.668;2024-01-30T14:15:56;13.40;;;9.43;;
5730;SDS011;2890;51.950;7.668;2024-01-30T14:18:22;16.50;;;10.37;;
5730;SDS011;2890;51.950;7.668;2024-01-30T14:20:50;10.90;;;9.80;;
5730;SDS011;2890;51.950;7.668;2024-01-30T14:23:18;11.17;;;9.00;;
5730;SDS011;2890;51.950;7.668;2024-01-30T14:25:44;10.00;;;9.00;;
5730;SDS011;2890;51.950;7.668;2024-01-30T14:28:11;10.30;;;9.23;;
5730;SDS011;2890;51.950;7.668;2024-01-30T14:30:37;13.40;;;8.67;;
5730;SDS011;2890;51.950;7.668;2024-01-30T14:33:04;9.60;;;8.70;;
5730;SDS011;2890;51.950;7.668;2024-01-30T14:35:31;12.17;;;8.47;;
5730;SDS011;2890;51.950;7.668;2024-01-30T14:37:58;11.30;;;8.30;;
5730;SDS011;2890;51.950;7.668;2024-01-30T14:40:26;11.90;;;8.93;;
5730;SDS011;2890;51.950;7.668;2024-01-30T14:42:52;11.97;;;8.80;;
5730;SDS011;2890;51.950;7.668;2024-01-30T14:45:19;9.53;;;8.57;;
5730;SDS011;2890;51.950;7.668;2024-01-30T14:47:47;11.20;;;9.70;;
5730;SDS011;2890;51.950;7.668;2024-01-30T14:50:13;12.17;;;9.30;;
5730;SDS011;2890;51.950;7.668;2024-01-30T14:52:41;11.63;;;9.33;;